CheckWX is a tool to help pilots better visualize weather data.  It is not intended as a substitute for an official pre-flight weather briefing.

04:20:52 UTC

KMTN TAF
Martin State Airport
Baltimore, Maryland, USA
KMTN 262332Z 2700/2724 26006KT P6SM SCT050 FM271400 34004KT P6SM FEW250 FM272000 27005KT P6SM FEW090 FM272300 07004KT P6SM FEW090

Jun-27@
00:00 UTC

Jun-27 @ 00:00 UTC

Jun-27@
14:00 UTC

Jun-27 @ 14:00 UTC

KMTN 262332Z 2700/2724 26006KT P6SM SCT050
Wind
  • 260° at 6 KTS
Cloud Levels
  • Scattered at 5,000' AGL

Jun-27@
14:00 UTC

Jun-27 @ 14:00 UTC

Jun-27@
20:00 UTC

Jun-27 @ 20:00 UTC

FM271400 34004KT P6SM FEW250

From

From Standard forecast or significant change

Wind
  • 340° at 4 KTS
Cloud Levels
  • Few at 25,000' AGL

Jun-27@
20:00 UTC

Jun-27 @ 20:00 UTC

Jun-27@
23:00 UTC

Jun-27 @ 23:00 UTC

FM272000 27005KT P6SM FEW090

From

From Standard forecast or significant change

Wind
  • 270° at 5 KTS
Cloud Levels
  • Few at 9,000' AGL

Jun-27@
23:00 UTC

Jun-27 @ 23:00 UTC

Jun-28@
00:00 UTC

Jun-28 @ 00:00 UTC

FM272300 07004KT P6SM FEW090

From

From Standard forecast or significant change

Wind
  • 070° at 4 KTS
Cloud Levels
  • Few at 9,000' AGL